F.r. Bigelow — WDB8153 — position and weather

sailwx.info

Track history (hours):
 
Tides and Currents Weather Stations Pressure Air Temp Water Temp Dewpoint Dewpoint Depression Visibility Wind Speed Wind Dir Waves Ship Positions

F.r. Bigelow

Owner: INGRAM BARGE COMPANY, Nashville, TN. More information available from US FCC via Universal Licensing System and Coast Guard Vessel Documentation Center.

Last reported at 2014-Oct-31 14:06 UTC. Time now 2014-Oct-31 17:15 UTC.
Position N 30°03' W 090°51'.

Length 46 m; draft 2.7 m.

Type: Tow > 200 m length. MMSI: 366953890.

Date/timePositionNaut miles runAvg speedWind from/ knotsBaromVisibWave heightAir tempDewpointWater temp
2014-Oct-31 14:06N 30°03' W 090°51'4 6.2
2014-Oct-31 13:29N 30°05' W 090°55'3 3.2
2014-Oct-31 12:33N 30°07' W 090°57'2 2.0
2014-Oct-31 11:33N 30°07' W 090°59'2 1.7
2014-Oct-31 10:21N 30°08' W 091°00'11 0.6
2014-Oct-30 14:13N 30°01' W 090°50'3 3.9
2014-Oct-30 13:30N 29°59' W 090°49'3 2.5
2014-Oct-30 12:21N 30°01' W 090°47'34 1.9
2014-Oct-29 18:29N 29°55' W 090°08'5 3.8
2014-Oct-29 17:19N 29°56' W 090°03'0 0.1
2014-Oct-29 16:33N 29°57' W 090°03'0 0.0
2014-Oct-29 15:17N 29°57' W 090°03'0 0.0
2014-Oct-29 14:27N 29°57' W 090°03'0 0.0
2014-Oct-29 13:33N 29°57' W 090°03'0 0.0
2014-Oct-29 12:33N 29°57' W 090°03'2 1.7
2014-Oct-29 11:33N 29°57' W 090°01'6 5.6
2014-Oct-29 10:29N 29°55' W 089°55'8 0.5
2014-Oct-28 17:17N 29°57' W 090°04'1 1.0
2014-Oct-28 16:32N 29°56' W 090°03'0 0.4
2014-Oct-28 15:33N 29°57' W 090°03'0 0.1
2014-Oct-28 14:33N 29°56' W 090°03'0 0.0
2014-Oct-28 13:22N 29°56' W 090°03'0 0.1
2014-Oct-28 12:33N 29°57' W 090°03'0 0.1
2014-Oct-28 11:33N 29°57' W 090°03'4 2.4
2014-Oct-28 10:04N 29°56' W 089°59'0 0.0
2014-Oct-28 09:08N 29°56' W 089°59'0 0.0
2014-Oct-28 08:24N 29°56' W 089°59'3 3.0
2014-Oct-28 07:19N 29°55' W 089°56'4 2.9
2014-Oct-28 06:06N 29°52' W 089°58'4 6.0
2014-Oct-28 05:29N 29°49' W 089°60'4 0.2
2014-Oct-27 08:30N 29°53' W 089°57'3 2.8
2014-Oct-27 07:32N 29°55' W 089°56'7 6.6
2014-Oct-27 06:30N 29°57' W 090°04'5 4.7
2014-Oct-27 05:32N 29°55' W 090°08'35 2.3
2014-Oct-26 14:33N 29°60' W 090°48'3 2.5
2014-Oct-26 13:33N 30°01' W 090°50'3 2.8
2014-Oct-26 12:33N 30°04' W 090°51'0 0.0
2014-Oct-26 11:33N 30°04' W 090°51'0 0.0
2014-Oct-26 10:33N 30°04' W 090°51'0 0.0
2014-Oct-26 09:33N 30°04' W 090°51'0 0.0
2014-Oct-26 08:33N 30°04' W 090°51'5 4.2
2014-Oct-26 07:20N 30°08' W 090°55'5 4.1
2014-Oct-26 06:08N 30°07' W 091°01'5 0.1
2014-Oct-24 14:33N 30°07' W 090°55'4 3.4
2014-Oct-24 13:20N 30°04' W 090°53'1 1.6
2014-Oct-24 12:33N 30°04' W 090°51'3 3.1
2014-Oct-24 11:32N 30°01' W 090°50'2 2.4
2014-Oct-24 10:33N 29°60' W 090°48'4 3.7
2014-Oct-24 09:21N 30°01' W 090°43'10 3.2
2014-Oct-24 06:10N 30°03' W 090°31'23 1.2
2014-Oct-23 10:33N 29°55' W 090°07'5 4.6
2014-Oct-23 09:33N 29°57' W 090°03'39 1.5
2014-Oct-22 06:33N 30°00' W 090°48'  
Track history (hours):
 
Tides and Currents Weather Stations Pressure Air Temp Water Temp Dewpoint Dewpoint Depression Visibility Wind Speed Wind Dir Waves Ship Positions

F.r. Bigelow

Owner: INGRAM BARGE COMPANY, Nashville, TN. More information available from US FCC via Universal Licensing System and Coast Guard Vessel Documentation Center.

Last reported at 2014-Oct-31 14:06 UTC. Time now 2014-Oct-31 17:15 UTC.
Position N 30°03' W 090°51'.

Length 46 m; draft 2.7 m.

Type: Tow > 200 m length. MMSI: 366953890.

Date/timePositionNaut miles runAvg speedWind from/ knotsBaromVisibWave heightAir tempDewpointWater temp
2014-Oct-31 14:06N 30°03' W 090°51'4 6.2
2014-Oct-31 13:29N 30°05' W 090°55'3 3.2
2014-Oct-31 12:33N 30°07' W 090°57'2 2.0
2014-Oct-31 11:33N 30°07' W 090°59'2 1.7
2014-Oct-31 10:21N 30°08' W 091°00'11 0.6
2014-Oct-30 14:13N 30°01' W 090°50'3 3.9
2014-Oct-30 13:30N 29°59' W 090°49'3 2.5
2014-Oct-30 12:21N 30°01' W 090°47'34 1.9
2014-Oct-29 18:29N 29°55' W 090°08'5 3.8
2014-Oct-29 17:19N 29°56' W 090°03'0 0.1
2014-Oct-29 16:33N 29°57' W 090°03'0 0.0
2014-Oct-29 15:17N 29°57' W 090°03'0 0.0
2014-Oct-29 14:27N 29°57' W 090°03'0 0.0
2014-Oct-29 13:33N 29°57' W 090°03'0 0.0
2014-Oct-29 12:33N 29°57' W 090°03'2 1.7
2014-Oct-29 11:33N 29°57' W 090°01'6 5.6
2014-Oct-29 10:29N 29°55' W 089°55'8 0.5
2014-Oct-28 17:17N 29°57' W 090°04'1 1.0
2014-Oct-28 16:32N 29°56' W 090°03'0 0.4
2014-Oct-28 15:33N 29°57' W 090°03'0 0.1
2014-Oct-28 14:33N 29°56' W 090°03'0 0.0
2014-Oct-28 13:22N 29°56' W 090°03'0 0.1
2014-Oct-28 12:33N 29°57' W 090°03'0 0.1
2014-Oct-28 11:33N 29°57' W 090°03'4 2.4
2014-Oct-28 10:04N 29°56' W 089°59'0 0.0
2014-Oct-28 09:08N 29°56' W 089°59'0 0.0
2014-Oct-28 08:24N 29°56' W 089°59'3 3.0
2014-Oct-28 07:19N 29°55' W 089°56'4 2.9
2014-Oct-28 06:06N 29°52' W 089°58'4 6.0
2014-Oct-28 05:29N 29°49' W 089°60'4 0.2
2014-Oct-27 08:30N 29°53' W 089°57'3 2.8
2014-Oct-27 07:32N 29°55' W 089°56'7 6.6
2014-Oct-27 06:30N 29°57' W 090°04'5 4.7
2014-Oct-27 05:32N 29°55' W 090°08'35 2.3
2014-Oct-26 14:33N 29°60' W 090°48'3 2.5
2014-Oct-26 13:33N 30°01' W 090°50'3 2.8
2014-Oct-26 12:33N 30°04' W 090°51'0 0.0
2014-Oct-26 11:33N 30°04' W 090°51'0 0.0
2014-Oct-26 10:33N 30°04' W 090°51'0 0.0
2014-Oct-26 09:33N 30°04' W 090°51'0 0.0
2014-Oct-26 08:33N 30°04' W 090°51'5 4.2
2014-Oct-26 07:20N 30°08' W 090°55'5 4.1
2014-Oct-26 06:08N 30°07' W 091°01'5 0.1
2014-Oct-24 14:33N 30°07' W 090°55'4 3.4
2014-Oct-24 13:20N 30°04' W 090°53'1 1.6
2014-Oct-24 12:33N 30°04' W 090°51'3 3.1
2014-Oct-24 11:32N 30°01' W 090°50'2 2.4
2014-Oct-24 10:33N 29°60' W 090°48'4 3.7
2014-Oct-24 09:21N 30°01' W 090°43'10 3.2
2014-Oct-24 06:10N 30°03' W 090°31'23 1.2
2014-Oct-23 10:33N 29°55' W 090°07'5 4.6
2014-Oct-23 09:33N 29°57' W 090°03'39 1.5
2014-Oct-22 06:33N 30°00' W 090°48'  

Dump ship's entire track history